sensor_id;sensor_type;location;lat;lon;timestamp;P1;durP1;ratioP1;P2;durP2;ratioP2
70106;SDS011;57473;37.508;15.080;2022-12-05T00:01:14;121.40;;;60.63;;
70106;SDS011;57473;37.508;15.080;2022-12-05T00:03:57;301.67;;;166.18;;
70106;SDS011;57473;37.508;15.080;2022-12-05T00:06:27;151.93;;;83.88;;
70106;SDS011;57473;37.508;15.080;2022-12-05T00:08:56;14.82;;;5.05;;
70106;SDS011;57473;37.508;15.080;2022-12-05T00:11:27;20.13;;;5.57;;
70106;SDS011;57473;37.508;15.080;2022-12-05T00:13:57;16.75;;;6.00;;
70106;SDS011;57473;37.508;15.080;2022-12-05T00:16:27;24.90;;;10.98;;
70106;SDS011;57473;37.508;15.080;2022-12-05T00:18:57;21.85;;;6.90;;
70106;SDS011;57473;37.508;15.080;2022-12-05T00:21:27;13.20;;;4.63;;
70106;SDS011;57473;37.508;15.080;2022-12-05T00:23:56;14.80;;;5.20;;
70106;SDS011;57473;37.508;15.080;2022-12-05T00:26:25;11.82;;;5.05;;
70106;SDS011;57473;37.508;15.080;2022-12-05T00:28:53;11.75;;;5.82;;
70106;SDS011;57473;37.508;15.080;2022-12-05T00:31:21;14.48;;;7.00;;
70106;SDS011;57473;37.508;15.080;2022-12-05T00:33:50;16.25;;;7.07;;
70106;SDS011;57473;37.508;15.080;2022-12-05T00:36:19;28.00;;;13.45;;
70106;SDS011;57473;37.508;15.080;2022-12-05T00:38:48;27.55;;;8.13;;
70106;SDS011;57473;37.508;15.080;2022-12-05T00:41:20;13.73;;;6.50;;
70106;SDS011;57473;37.508;15.080;2022-12-05T00:43:49;14.82;;;4.65;;
70106;SDS011;57473;37.508;15.080;2022-12-05T00:46:18;16.13;;;5.10;;
70106;SDS011;57473;37.508;15.080;2022-12-05T00:48:47;15.68;;;4.18;;
70106;SDS011;57473;37.508;15.080;2022-12-05T00:51:17;14.32;;;4.13;;
70106;SDS011;57473;37.508;15.080;2022-12-05T00:53:46;12.77;;;4.63;;
70106;SDS011;57473;37.508;15.080;2022-12-05T00:56:16;14.18;;;4.25;;
70106;SDS011;57473;37.508;15.080;2022-12-05T00:58:48;18.40;;;4.22;;
70106;SDS011;57473;37.508;15.080;2022-12-05T01:01:22;19.00;;;5.57;;
70106;SDS011;57473;37.508;15.080;2022-12-05T01:03:51;24.75;;;4.93;;
70106;SDS011;57473;37.508;15.080;2022-12-05T01:06:20;16.90;;;4.50;;
70106;SDS011;57473;37.508;15.080;2022-12-05T01:08:49;15.93;;;4.65;;
70106;SDS011;57473;37.508;15.080;2022-12-05T01:11:17;18.10;;;4.40;;
70106;SDS011;57473;37.508;15.080;2022-12-05T01:13:45;11.48;;;3.60;;
70106;SDS011;57473;37.508;15.080;2022-12-05T01:16:21;9.63;;;4.20;;
70106;SDS011;57473;37.508;15.080;2022-12-05T01:18:51;8.38;;;3.50;;
70106;SDS011;57473;37.508;15.080;2022-12-05T01:21:18;12.68;;;4.15;;
70106;SDS011;57473;37.508;15.080;2022-12-05T01:23:47;12.80;;;3.55;;
70106;SDS011;57473;37.508;15.080;2022-12-05T01:26:15;8.40;;;4.13;;
70106;SDS011;57473;37.508;15.080;2022-12-05T01:28:44;11.80;;;3.60;;
70106;SDS011;57473;37.508;15.080;2022-12-05T01:31:17;11.88;;;3.50;;
70106;SDS011;57473;37.508;15.080;2022-12-05T01:33:49;13.98;;;3.60;;
70106;SDS011;57473;37.508;15.080;2022-12-05T01:36:19;10.02;;;3.35;;
70106;SDS011;57473;37.508;15.080;2022-12-05T01:38:47;16.23;;;3.80;;
70106;SDS011;57473;37.508;15.080;2022-12-05T01:41:17;14.23;;;3.67;;
70106;SDS011;57473;37.508;15.080;2022-12-05T01:46:19;8.70;;;3.42;;
70106;SDS011;57473;37.508;15.080;2022-12-05T01:48:47;13.10;;;4.07;;
70106;SDS011;57473;37.508;15.080;2022-12-05T01:51:15;11.75;;;3.95;;
70106;SDS011;57473;37.508;15.080;2022-12-05T01:53:43;8.43;;;3.38;;
70106;SDS011;57473;37.508;15.080;2022-12-05T01:56:11;15.60;;;3.50;;
70106;SDS011;57473;37.508;15.080;2022-12-05T01:58:40;10.80;;;3.22;;
70106;SDS011;57473;37.508;15.080;2022-12-05T02:01:10;11.35;;;3.30;;
70106;SDS011;57473;37.508;15.080;2022-12-05T02:03:39;12.38;;;3.42;;
70106;SDS011;57473;37.508;15.080;2022-12-05T02:06:08;10.98;;;3.38;;
70106;SDS011;57473;37.508;15.080;2022-12-05T02:08:37;9.48;;;3.65;;
70106;SDS011;57473;37.508;15.080;2022-12-05T02:11:05;10.27;;;3.40;;
70106;SDS011;57473;37.508;15.080;2022-12-05T02:19:25;7.15;;;2.60;;
70106;SDS011;57473;37.508;15.080;2022-12-05T02:30:59;15.13;;;3.33;;
70106;SDS011;57473;37.508;15.080;2022-12-05T02:33:42;13.32;;;3.42;;
70106;SDS011;57473;37.508;15.080;2022-12-05T02:39:09;15.80;;;3.78;;
70106;SDS011;57473;37.508;15.080;2022-12-05T02:47:07;14.75;;;3.47;;
70106;SDS011;57473;37.508;15.080;2022-12-05T02:49:38;16.10;;;3.35;;
70106;SDS011;57473;37.508;15.080;2022-12-05T02:52:08;16.08;;;4.20;;
70106;SDS011;57473;37.508;15.080;2022-12-05T02:54:40;15.33;;;4.30;;
70106;SDS011;57473;37.508;15.080;2022-12-05T02:57:10;12.00;;;3.25;;
70106;SDS011;57473;37.508;15.080;2022-12-05T02:59:39;18.27;;;5.25;;
70106;SDS011;57473;37.508;15.080;2022-12-05T03:02:20;8.23;;;3.13;;
70106;SDS011;57473;37.508;15.080;2022-12-05T03:04:57;10.00;;;3.35;;
70106;SDS011;57473;37.508;15.080;2022-12-05T03:07:48;11.13;;;3.22;;
70106;SDS011;57473;37.508;15.080;2022-12-05T03:10:20;7.40;;;3.17;;
70106;SDS011;57473;37.508;15.080;2022-12-05T03:12:50;13.10;;;3.60;;
70106;SDS011;57473;37.508;15.080;2022-12-05T03:15:23;10.90;;;3.17;;
70106;SDS011;57473;37.508;15.080;2022-12-05T03:20:37;12.73;;;3.03;;
70106;SDS011;57473;37.508;15.080;2022-12-05T03:23:13;12.10;;;2.83;;
70106;SDS011;57473;37.508;15.080;2022-12-05T03:25:50;7.07;;;3.20;;
70106;SDS011;57473;37.508;15.080;2022-12-05T03:31:24;10.20;;;3.10;;
70106;SDS011;57473;37.508;15.080;2022-12-05T03:34:17;10.27;;;2.88;;
70106;SDS011;57473;37.508;15.080;2022-12-05T03:36:50;12.13;;;3.30;;
70106;SDS011;57473;37.508;15.080;2022-12-05T03:39:22;10.75;;;3.13;;
70106;SDS011;57473;37.508;15.080;2022-12-05T03:50:11;13.82;;;3.90;;
70106;SDS011;57473;37.508;15.080;2022-12-05T03:52:56;16.98;;;3.72;;
70106;SDS011;57473;37.508;15.080;2022-12-05T03:55:58;12.18;;;3.65;;
70106;SDS011;57473;37.508;15.080;2022-12-05T03:58:50;9.77;;;2.88;;
70106;SDS011;57473;37.508;15.080;2022-12-05T04:01:22;11.45;;;3.00;;
70106;SDS011;57473;37.508;15.080;2022-12-05T04:03:57;12.18;;;3.55;;
70106;SDS011;57473;37.508;15.080;2022-12-05T04:06:32;8.55;;;3.08;;
70106;SDS011;57473;37.508;15.080;2022-12-05T04:09:03;16.50;;;3.20;;
70106;SDS011;57473;37.508;15.080;2022-12-05T04:11:47;13.88;;;3.58;;
70106;SDS011;57473;37.508;15.080;2022-12-05T04:15:04;7.93;;;3.03;;
70106;SDS011;57473;37.508;15.080;2022-12-05T04:20:05;13.20;;;4.05;;
70106;SDS011;57473;37.508;15.080;2022-12-05T04:23:02;14.63;;;3.83;;
70106;SDS011;57473;37.508;15.080;2022-12-05T04:25:38;12.65;;;3.92;;
70106;SDS011;57473;37.508;15.080;2022-12-05T04:31:05;13.70;;;3.75;;
70106;SDS011;57473;37.508;15.080;2022-12-05T04:36:22;13.52;;;4.10;;
70106;SDS011;57473;37.508;15.080;2022-12-05T04:39:02;11.90;;;4.13;;
70106;SDS011;57473;37.508;15.080;2022-12-05T04:44:15;14.90;;;4.90;;
70106;SDS011;57473;37.508;15.080;2022-12-05T04:46:45;9.63;;;3.15;;
70106;SDS011;57473;37.508;15.080;2022-12-05T04:49:16;10.10;;;3.20;;
70106;SDS011;57473;37.508;15.080;2022-12-05T04:51:51;13.38;;;3.47;;
70106;SDS011;57473;37.508;15.080;2022-12-05T04:54:29;14.48;;;3.72;;
70106;SDS011;57473;37.508;15.080;2022-12-05T04:57:21;11.13;;;3.95;;
70106;SDS011;57473;37.508;15.080;2022-12-05T05:00:02;20.05;;;5.18;;
70106;SDS011;57473;37.508;15.080;2022-12-05T05:02:34;13.57;;;3.45;;
70106;SDS011;57473;37.508;15.080;2022-12-05T05:05:08;16.55;;;4.38;;
70106;SDS011;57473;37.508;15.080;2022-12-05T05:07:48;13.18;;;4.72;;
70106;SDS011;57473;37.508;15.080;2022-12-05T05:10:34;14.50;;;4.18;;
70106;SDS011;57473;37.508;15.080;2022-12-05T05:13:08;14.20;;;3.55;;
70106;SDS011;57473;37.508;15.080;2022-12-05T05:15:35;17.15;;;4.15;;
70106;SDS011;57473;37.508;15.080;2022-12-05T05:18:03;12.48;;;4.07;;
70106;SDS011;57473;37.508;15.080;2022-12-05T05:20:30;31.58;;;10.05;;
70106;SDS011;57473;37.508;15.080;2022-12-05T05:22:57;13.05;;;5.68;;
70106;SDS011;57473;37.508;15.080;2022-12-05T05:25:24;18.52;;;7.93;;
70106;SDS011;57473;37.508;15.080;2022-12-05T05:27:53;18.38;;;5.70;;
70106;SDS011;57473;37.508;15.080;2022-12-05T05:30:22;16.92;;;5.20;;
70106;SDS011;57473;37.508;15.080;2022-12-05T05:32:50;13.35;;;4.88;;
70106;SDS011;57473;37.508;15.080;2022-12-05T05:35:18;16.00;;;4.53;;
70106;SDS011;57473;37.508;15.080;2022-12-05T05:37:47;11.85;;;4.43;;
70106;SDS011;57473;37.508;15.080;2022-12-05T05:40:14;13.57;;;5.32;;
70106;SDS011;57473;37.508;15.080;2022-12-05T05:42:46;9.98;;;4.18;;
70106;SDS011;57473;37.508;15.080;2022-12-05T05:45:15;16.83;;;6.05;;
70106;SDS011;57473;37.508;15.080;2022-12-05T05:47:42;38.30;;;17.45;;
70106;SDS011;57473;37.508;15.080;2022-12-05T05:50:10;32.53;;;11.93;;
70106;SDS011;57473;37.508;15.080;2022-12-05T05:52:46;20.63;;;8.25;;
70106;SDS011;57473;37.508;15.080;2022-12-05T05:55:13;24.25;;;8.75;;
70106;SDS011;57473;37.508;15.080;2022-12-05T05:57:41;22.40;;;9.23;;
70106;SDS011;57473;37.508;15.080;2022-12-05T06:00:08;22.40;;;8.48;;
70106;SDS011;57473;37.508;15.080;2022-12-05T06:02:37;18.92;;;7.65;;
70106;SDS011;57473;37.508;15.080;2022-12-05T06:05:04;29.35;;;11.00;;
70106;SDS011;57473;37.508;15.080;2022-12-05T06:07:32;31.17;;;15.18;;
70106;SDS011;57473;37.508;15.080;2022-12-05T06:10:00;32.55;;;17.77;;
70106;SDS011;57473;37.508;15.080;2022-12-05T06:12:28;28.77;;;16.08;;
70106;SDS011;57473;37.508;15.080;2022-12-05T06:14:55;29.95;;;12.88;;
70106;SDS011;57473;37.508;15.080;2022-12-05T06:17:22;27.70;;;11.43;;
70106;SDS011;57473;37.508;15.080;2022-12-05T06:19:50;20.25;;;9.52;;
70106;SDS011;57473;37.508;15.080;2022-12-05T06:22:17;26.10;;;9.63;;
70106;SDS011;57473;37.508;15.080;2022-12-05T06:24:44;26.77;;;9.73;;
70106;SDS011;57473;37.508;15.080;2022-12-05T06:27:13;20.05;;;8.20;;
70106;SDS011;57473;37.508;15.080;2022-12-05T06:29:41;19.00;;;7.25;;
70106;SDS011;57473;37.508;15.080;2022-12-05T06:32:08;17.33;;;7.30;;
70106;SDS011;57473;37.508;15.080;2022-12-05T06:34:36;17.35;;;8.13;;
70106;SDS011;57473;37.508;15.080;2022-12-05T06:37:03;20.00;;;10.05;;
70106;SDS011;57473;37.508;15.080;2022-12-05T06:39:30;24.27;;;10.27;;
70106;SDS011;57473;37.508;15.080;2022-12-05T06:41:58;24.75;;;10.65;;
70106;SDS011;57473;37.508;15.080;2022-12-05T06:44:25;17.83;;;10.55;;
70106;SDS011;57473;37.508;15.080;2022-12-05T06:46:54;20.05;;;10.32;;
70106;SDS011;57473;37.508;15.080;2022-12-05T06:49:22;25.35;;;10.55;;
70106;SDS011;57473;37.508;15.080;2022-12-05T06:51:59;22.90;;;9.85;;
70106;SDS011;57473;37.508;15.080;2022-12-05T06:54:26;19.98;;;9.20;;
70106;SDS011;57473;37.508;15.080;2022-12-05T06:56:53;19.95;;;9.45;;
70106;SDS011;57473;37.508;15.080;2022-12-05T06:59:21;18.17;;;9.23;;
70106;SDS011;57473;37.508;15.080;2022-12-05T07:01:48;19.77;;;8.93;;
70106;SDS011;57473;37.508;15.080;2022-12-05T07:04:17;16.02;;;8.25;;
70106;SDS011;57473;37.508;15.080;2022-12-05T07:06:46;18.77;;;7.63;;
70106;SDS011;57473;37.508;15.080;2022-12-05T07:09:20;20.10;;;7.60;;
70106;SDS011;57473;37.508;15.080;2022-12-05T07:12:09;17.55;;;7.45;;
70106;SDS011;57473;37.508;15.080;2022-12-05T07:14:37;19.80;;;7.32;;
70106;SDS011;57473;37.508;15.080;2022-12-05T07:17:13;20.55;;;7.63;;
70106;SDS011;57473;37.508;15.080;2022-12-05T07:19:41;24.67;;;8.63;;
70106;SDS011;57473;37.508;15.080;2022-12-05T07:22:09;23.20;;;8.38;;
70106;SDS011;57473;37.508;15.080;2022-12-05T07:24:42;22.63;;;8.50;;
70106;SDS011;57473;37.508;15.080;2022-12-05T07:27:10;24.05;;;9.45;;
70106;SDS011;57473;37.508;15.080;2022-12-05T07:29:38;20.98;;;8.50;;
70106;SDS011;57473;37.508;15.080;2022-12-05T07:32:06;20.15;;;8.40;;
70106;SDS011;57473;37.508;15.080;2022-12-05T07:34:34;25.08;;;8.38;;
70106;SDS011;57473;37.508;15.080;2022-12-05T07:37:01;23.45;;;8.93;;
70106;SDS011;57473;37.508;15.080;2022-12-05T07:39:29;22.92;;;8.77;;
70106;SDS011;57473;37.508;15.080;2022-12-05T07:41:56;18.33;;;8.95;;
70106;SDS011;57473;37.508;15.080;2022-12-05T07:44:24;19.08;;;8.55;;
70106;SDS011;57473;37.508;15.080;2022-12-05T07:46:51;23.27;;;9.43;;
70106;SDS011;57473;37.508;15.080;2022-12-05T07:49:18;26.05;;;10.02;;
70106;SDS011;57473;37.508;15.080;2022-12-05T07:51:46;20.40;;;9.57;;
70106;SDS011;57473;37.508;15.080;2022-12-05T07:54:13;28.63;;;9.35;;
70106;SDS011;57473;37.508;15.080;2022-12-05T07:56:40;26.20;;;9.10;;
70106;SDS011;57473;37.508;15.080;2022-12-05T07:59:13;22.45;;;9.75;;
70106;SDS011;57473;37.508;15.080;2022-12-05T08:01:40;37.20;;;11.82;;
70106;SDS011;57473;37.508;15.080;2022-12-05T08:04:08;31.85;;;10.30;;
70106;SDS011;57473;37.508;15.080;2022-12-05T08:06:40;31.75;;;10.93;;
70106;SDS011;57473;37.508;15.080;2022-12-05T08:09:08;33.85;;;12.10;;
70106;SDS011;57473;37.508;15.080;2022-12-05T08:11:36;31.50;;;12.18;;
70106;SDS011;57473;37.508;15.080;2022-12-05T08:14:04;28.20;;;11.85;;
70106;SDS011;57473;37.508;15.080;2022-12-05T08:16:32;29.10;;;12.70;;
70106;SDS011;57473;37.508;15.080;2022-12-05T08:19:01;30.05;;;12.88;;
70106;SDS011;57473;37.508;15.080;2022-12-05T08:21:30;22.75;;;11.68;;
70106;SDS011;57473;37.508;15.080;2022-12-05T08:23:58;30.13;;;12.15;;
70106;SDS011;57473;37.508;15.080;2022-12-05T08:26:26;30.33;;;12.40;;
70106;SDS011;57473;37.508;15.080;2022-12-05T08:28:57;27.67;;;13.77;;
70106;SDS011;57473;37.508;15.080;2022-12-05T08:31:40;30.45;;;14.02;;
70106;SDS011;57473;37.508;15.080;2022-12-05T08:34:16;32.80;;;13.85;;
70106;SDS011;57473;37.508;15.080;2022-12-05T08:36:45;37.47;;;14.48;;
70106;SDS011;57473;37.508;15.080;2022-12-05T08:39:13;43.47;;;15.82;;
70106;SDS011;57473;37.508;15.080;2022-12-05T08:41:42;30.90;;;13.88;;
70106;SDS011;57473;37.508;15.080;2022-12-05T08:44:11;32.17;;;13.32;;
70106;SDS011;57473;37.508;15.080;2022-12-05T08:46:43;26.63;;;12.20;;
70106;SDS011;57473;37.508;15.080;2022-12-05T08:49:13;31.98;;;12.25;;
70106;SDS011;57473;37.508;15.080;2022-12-05T08:51:40;31.33;;;12.50;;
70106;SDS011;57473;37.508;15.080;2022-12-05T08:54:08;27.40;;;12.55;;
70106;SDS011;57473;37.508;15.080;2022-12-05T08:56:36;33.92;;;13.45;;
70106;SDS011;57473;37.508;15.080;2022-12-05T08:59:04;38.45;;;13.68;;
70106;SDS011;57473;37.508;15.080;2022-12-05T09:01:32;32.30;;;14.25;;
70106;SDS011;57473;37.508;15.080;2022-12-05T09:04:03;32.13;;;13.18;;
70106;SDS011;57473;37.508;15.080;2022-12-05T09:06:31;33.33;;;12.93;;
70106;SDS011;57473;37.508;15.080;2022-12-05T09:09:04;26.92;;;12.07;;
70106;SDS011;57473;37.508;15.080;2022-12-05T09:11:34;31.48;;;12.68;;
70106;SDS011;57473;37.508;15.080;2022-12-05T09:14:04;31.15;;;12.02;;
70106;SDS011;57473;37.508;15.080;2022-12-05T09:16:32;34.05;;;12.85;;
70106;SDS011;57473;37.508;15.080;2022-12-05T09:19:07;28.27;;;12.25;;
70106;SDS011;57473;37.508;15.080;2022-12-05T09:21:41;26.02;;;11.77;;
70106;SDS011;57473;37.508;15.080;2022-12-05T09:24:11;23.73;;;10.75;;
70106;SDS011;57473;37.508;15.080;2022-12-05T09:26:39;24.20;;;11.35;;
70106;SDS011;57473;37.508;15.080;2022-12-05T09:29:08;26.42;;;10.23;;
70106;SDS011;57473;37.508;15.080;2022-12-05T09:31:42;26.25;;;10.10;;
70106;SDS011;57473;37.508;15.080;2022-12-05T09:34:11;24.67;;;11.05;;
70106;SDS011;57473;37.508;15.080;2022-12-05T09:36:40;27.05;;;12.20;;
70106;SDS011;57473;37.508;15.080;2022-12-05T09:39:09;33.92;;;11.82;;
70106;SDS011;57473;37.508;15.080;2022-12-05T09:55:34;27.48;;;13.60;;
70106;SDS011;57473;37.508;15.080;2022-12-05T09:58:22;26.50;;;12.07;;
70106;SDS011;57473;37.508;15.080;2022-12-05T10:15:38;25.20;;;8.73;;
70106;SDS011;57473;37.508;15.080;2022-12-05T10:18:23;32.60;;;10.43;;
70106;SDS011;57473;37.508;15.080;2022-12-05T10:20:55;30.10;;;9.18;;
70106;SDS011;57473;37.508;15.080;2022-12-05T10:23:31;25.35;;;7.93;;
70106;SDS011;57473;37.508;15.080;2022-12-05T10:26:28;25.02;;;7.78;;
70106;SDS011;57473;37.508;15.080;2022-12-05T10:31:44;27.70;;;8.63;;
70106;SDS011;57473;37.508;15.080;2022-12-05T10:34:25;30.48;;;9.18;;
70106;SDS011;57473;37.508;15.080;2022-12-05T10:37:20;24.70;;;7.97;;
70106;SDS011;57473;37.508;15.080;2022-12-05T10:39:48;27.60;;;8.50;;
70106;SDS011;57473;37.508;15.080;2022-12-05T10:42:22;22.25;;;8.30;;
70106;SDS011;57473;37.508;15.080;2022-12-05T10:44:55;22.75;;;8.93;;
70106;SDS011;57473;37.508;15.080;2022-12-05T10:47:25;26.08;;;9.32;;
70106;SDS011;57473;37.508;15.080;2022-12-05T10:49:53;28.63;;;8.93;;
70106;SDS011;57473;37.508;15.080;2022-12-05T10:52:24;32.65;;;10.32;;
70106;SDS011;57473;37.508;15.080;2022-12-05T10:54:55;35.70;;;10.60;;
70106;SDS011;57473;37.508;15.080;2022-12-05T10:57:27;25.05;;;8.65;;
70106;SDS011;57473;37.508;15.080;2022-12-05T11:00:08;30.55;;;8.80;;
70106;SDS011;57473;37.508;15.080;2022-12-05T11:02:40;19.88;;;8.00;;
70106;SDS011;57473;37.508;15.080;2022-12-05T11:05:08;32.88;;;9.20;;
70106;SDS011;57473;37.508;15.080;2022-12-05T11:12:53;27.15;;;6.88;;
70106;SDS011;57473;37.508;15.080;2022-12-05T11:15:24;23.63;;;5.90;;
70106;SDS011;57473;37.508;15.080;2022-12-05T11:17:58;32.22;;;7.55;;
70106;SDS011;57473;37.508;15.080;2022-12-05T11:20:45;29.25;;;6.88;;
70106;SDS011;57473;37.508;15.080;2022-12-05T11:23:19;17.52;;;6.13;;
70106;SDS011;57473;37.508;15.080;2022-12-05T11:25:51;21.08;;;6.22;;
70106;SDS011;57473;37.508;15.080;2022-12-05T11:31:29;22.45;;;5.72;;
70106;SDS011;57473;37.508;15.080;2022-12-05T11:33:38;16.98;;;6.47;;
70106;SDS011;57473;37.508;15.080;2022-12-05T11:36:19;27.35;;;7.32;;
70106;SDS011;57473;37.508;15.080;2022-12-05T11:38:49;26.80;;;7.05;;
70106;SDS011;57473;37.508;15.080;2022-12-05T11:44:21;30.73;;;6.10;;
70106;SDS011;57473;37.508;15.080;2022-12-05T11:47:20;20.80;;;6.53;;
70106;SDS011;57473;37.508;15.080;2022-12-05T11:50:11;29.52;;;7.20;;
70106;SDS011;57473;37.508;15.080;2022-12-05T11:55:38;20.92;;;6.00;;
70106;SDS011;57473;37.508;15.080;2022-12-05T11:58:19;26.52;;;5.40;;
70106;SDS011;57473;37.508;15.080;2022-12-05T12:07:04;26.25;;;5.63;;
70106;SDS011;57473;37.508;15.080;2022-12-05T12:09:41;23.80;;;5.23;;
70106;SDS011;57473;37.508;15.080;2022-12-05T12:18:48;27.83;;;6.60;;
70106;SDS011;57473;37.508;15.080;2022-12-05T12:30:00;26.17;;;6.03;;
70106;SDS011;57473;37.508;15.080;2022-12-05T12:32:48;22.15;;;5.38;;
70106;SDS011;57473;37.508;15.080;2022-12-05T12:35:37;19.63;;;4.75;;
70106;SDS011;57473;37.508;15.080;2022-12-05T12:47:16;27.20;;;6.25;;
70106;SDS011;57473;37.508;15.080;2022-12-05T12:50:27;26.30;;;6.03;;
70106;SDS011;57473;37.508;15.080;2022-12-05T12:58:38;21.27;;;4.30;;
70106;SDS011;57473;37.508;15.080;2022-12-05T13:04:30;24.90;;;4.53;;
70106;SDS011;57473;37.508;15.080;2022-12-05T13:07:15;32.35;;;5.57;;
70106;SDS011;57473;37.508;15.080;2022-12-05T13:10:12;20.30;;;4.47;;
70106;SDS011;57473;37.508;15.080;2022-12-05T13:13:01;18.25;;;4.43;;
70106;SDS011;57473;37.508;15.080;2022-12-05T13:15:35;21.42;;;4.00;;
70106;SDS011;57473;37.508;15.080;2022-12-05T13:18:13;23.52;;;4.20;;
70106;SDS011;57473;37.508;15.080;2022-12-05T13:20:45;23.67;;;5.38;;
70106;SDS011;57473;37.508;15.080;2022-12-05T13:23:15;29.52;;;4.38;;
70106;SDS011;57473;37.508;15.080;2022-12-05T13:25:49;95.55;;;49.60;;
70106;SDS011;57473;37.508;15.080;2022-12-05T13:28:31;20.42;;;8.00;;
70106;SDS011;57473;37.508;15.080;2022-12-05T13:37:18;24.50;;;5.18;;
70106;SDS011;57473;37.508;15.080;2022-12-05T13:43:20;21.02;;;4.18;;
70106;SDS011;57473;37.508;15.080;2022-12-05T13:46:01;23.88;;;4.43;;
70106;SDS011;57473;37.508;15.080;2022-12-05T13:48:40;22.38;;;3.72;;
70106;SDS011;57473;37.508;15.080;2022-12-05T13:51:19;28.58;;;5.50;;
70106;SDS011;57473;37.508;15.080;2022-12-05T13:53:57;19.65;;;4.18;;
70106;SDS011;57473;37.508;15.080;2022-12-05T13:56:51;25.00;;;4.55;;
70106;SDS011;57473;37.508;15.080;2022-12-05T14:07:44;22.17;;;3.72;;
70106;SDS011;57473;37.508;15.080;2022-12-05T14:10:14;24.73;;;4.32;;
70106;SDS011;57473;37.508;15.080;2022-12-05T14:13:37;15.38;;;3.80;;
70106;SDS011;57473;37.508;15.080;2022-12-05T14:15:44;25.40;;;5.22;;
70106;SDS011;57473;37.508;15.080;2022-12-05T14:18:37;27.95;;;3.55;;
70106;SDS011;57473;37.508;15.080;2022-12-05T14:21:25;22.15;;;3.55;;
70106;SDS011;57473;37.508;15.080;2022-12-05T14:24:28;20.02;;;3.65;;
70106;SDS011;57473;37.508;15.080;2022-12-05T14:27:10;20.63;;;3.00;;
70106;SDS011;57473;37.508;15.080;2022-12-05T14:30:04;22.67;;;3.65;;
70106;SDS011;57473;37.508;15.080;2022-12-05T14:32:48;15.93;;;3.13;;
70106;SDS011;57473;37.508;15.080;2022-12-05T14:37:55;35.08;;;5.45;;
70106;SDS011;57473;37.508;15.080;2022-12-05T14:40:30;21.27;;;3.38;;
70106;SDS011;57473;37.508;15.080;2022-12-05T14:42:59;12.68;;;3.10;;
70106;SDS011;57473;37.508;15.080;2022-12-05T14:48:27;17.50;;;3.20;;
70106;SDS011;57473;37.508;15.080;2022-12-05T14:50:55;19.23;;;4.90;;
70106;SDS011;57473;37.508;15.080;2022-12-05T14:53:29;14.40;;;3.75;;
70106;SDS011;57473;37.508;15.080;2022-12-05T14:56:04;12.50;;;3.53;;
70106;SDS011;57473;37.508;15.080;2022-12-05T14:58:51;16.92;;;3.78;;
70106;SDS011;57473;37.508;15.080;2022-12-05T15:06:45;21.60;;;5.07;;
70106;SDS011;57473;37.508;15.080;2022-12-05T15:12:04;32.53;;;6.93;;
70106;SDS011;57473;37.508;15.080;2022-12-05T15:14:46;13.43;;;5.18;;
70106;SDS011;57473;37.508;15.080;2022-12-05T15:17:24;12.55;;;4.20;;
70106;SDS011;57473;37.508;15.080;2022-12-05T15:19:58;16.63;;;3.80;;
70106;SDS011;57473;37.508;15.080;2022-12-05T15:22:32;19.33;;;4.13;;
70106;SDS011;57473;37.508;15.080;2022-12-05T15:27:51;20.42;;;5.10;;
70106;SDS011;57473;37.508;15.080;2022-12-05T15:30:20;17.60;;;5.22;;
70106;SDS011;57473;37.508;15.080;2022-12-05T15:32:48;14.93;;;4.55;;
70106;SDS011;57473;37.508;15.080;2022-12-05T15:35:22;18.08;;;3.95;;
70106;SDS011;57473;37.508;15.080;2022-12-05T15:37:59;24.50;;;6.65;;
70106;SDS011;57473;37.508;15.080;2022-12-05T15:40:43;29.00;;;9.73;;
70106;SDS011;57473;37.508;15.080;2022-12-05T15:43:30;20.08;;;6.22;;
70106;SDS011;57473;37.508;15.080;2022-12-05T15:46:08;32.22;;;9.55;;
70106;SDS011;57473;37.508;15.080;2022-12-05T15:48:53;13.85;;;5.00;;
70106;SDS011;57473;37.508;15.080;2022-12-05T15:53:58;14.90;;;5.30;;
70106;SDS011;57473;37.508;15.080;2022-12-05T15:56:37;19.92;;;4.97;;
70106;SDS011;57473;37.508;15.080;2022-12-05T15:59:20;14.77;;;4.60;;
70106;SDS011;57473;37.508;15.080;2022-12-05T16:01:57;21.42;;;7.65;;
70106;SDS011;57473;37.508;15.080;2022-12-05T16:04:33;16.10;;;4.85;;
70106;SDS011;57473;37.508;15.080;2022-12-05T16:07:08;13.52;;;5.40;;
70106;SDS011;57473;37.508;15.080;2022-12-05T16:09:38;20.33;;;5.30;;
70106;SDS011;57473;37.508;15.080;2022-12-05T16:12:16;26.33;;;6.88;;
70106;SDS011;57473;37.508;15.080;2022-12-05T16:14:51;16.50;;;5.68;;
70106;SDS011;57473;37.508;15.080;2022-12-05T16:17:26;18.67;;;5.88;;
70106;SDS011;57473;37.508;15.080;2022-12-05T16:22:46;12.75;;;5.30;;
70106;SDS011;57473;37.508;15.080;2022-12-05T16:25:16;17.60;;;5.43;;
70106;SDS011;57473;37.508;15.080;2022-12-05T16:31:02;16.95;;;5.70;;
70106;SDS011;57473;37.508;15.080;2022-12-05T16:33:31;15.82;;;6.18;;
70106;SDS011;57473;37.508;15.080;2022-12-05T16:36:08;13.93;;;5.60;;
70106;SDS011;57473;37.508;15.080;2022-12-05T16:38:36;21.15;;;7.05;;
70106;SDS011;57473;37.508;15.080;2022-12-05T16:41:06;14.23;;;5.60;;
70106;SDS011;57473;37.508;15.080;2022-12-05T16:48:39;10.05;;;5.10;;
70106;SDS011;57473;37.508;15.080;2022-12-05T16:53:43;29.30;;;7.88;;
70106;SDS011;57473;37.508;15.080;2022-12-05T16:56:13;18.10;;;6.40;;
70106;SDS011;57473;37.508;15.080;2022-12-05T16:58:44;22.75;;;9.05;;
70106;SDS011;57473;37.508;15.080;2022-12-05T17:01:15;40.65;;;22.05;;
70106;SDS011;57473;37.508;15.080;2022-12-05T17:03:53;55.20;;;38.42;;
70106;SDS011;57473;37.508;15.080;2022-12-05T17:06:22;67.90;;;43.78;;
70106;SDS011;57473;37.508;15.080;2022-12-05T17:08:51;52.17;;;28.75;;
70106;SDS011;57473;37.508;15.080;2022-12-05T17:11:22;58.83;;;29.50;;
70106;SDS011;57473;37.508;15.080;2022-12-05T17:13:52;44.58;;;19.65;;
70106;SDS011;57473;37.508;15.080;2022-12-05T17:16:22;34.40;;;12.43;;
70106;SDS011;57473;37.508;15.080;2022-12-05T17:18:52;32.03;;;11.77;;
70106;SDS011;57473;37.508;15.080;2022-12-05T17:21:20;24.80;;;11.13;;
70106;SDS011;57473;37.508;15.080;2022-12-05T17:23:50;30.30;;;12.13;;
70106;SDS011;57473;37.508;15.080;2022-12-05T17:26:18;22.45;;;9.98;;
70106;SDS011;57473;37.508;15.080;2022-12-05T17:28:47;25.20;;;8.90;;
70106;SDS011;57473;37.508;15.080;2022-12-05T17:31:17;23.48;;;9.18;;
70106;SDS011;57473;37.508;15.080;2022-12-05T17:33:46;25.42;;;8.82;;
70106;SDS011;57473;37.508;15.080;2022-12-05T17:36:15;21.73;;;6.75;;
70106;SDS011;57473;37.508;15.080;2022-12-05T17:38:43;26.25;;;8.15;;
70106;SDS011;57473;37.508;15.080;2022-12-05T17:41:20;36.15;;;8.88;;
70106;SDS011;57473;37.508;15.080;2022-12-05T17:43:49;25.17;;;9.77;;
70106;SDS011;57473;37.508;15.080;2022-12-05T17:46:20;24.85;;;8.45;;
70106;SDS011;57473;37.508;15.080;2022-12-05T17:48:49;42.50;;;14.02;;
70106;SDS011;57473;37.508;15.080;2022-12-05T17:51:18;22.58;;;8.48;;
70106;SDS011;57473;37.508;15.080;2022-12-05T17:53:46;22.40;;;8.98;;
70106;SDS011;57473;37.508;15.080;2022-12-05T17:56:14;25.30;;;9.40;;
70106;SDS011;57473;37.508;15.080;2022-12-05T17:58:42;22.98;;;7.60;;